KELP/ELP METAR and TAF weather

Enter ICAO airport designator
Station Type Date Time Source
KELP METAR 2022/01/26 08:51 UTC NOAA

KELP 260851Z 18006KT 10SM CLR 09/M06 A3002 RMK AO2 SLP128 T00891056 53007


Station Type Date Time Source
KELP Decoded METAR 2022/01/26 08:51 UTC NOAA

EL PASO INTERNATIONAL AIRPORT , TX, United States (KELP) 31-49N 106-23W 1197M
Jan 26, 2022 - 03:51 AM EST / 2022.01.26 0851 UTC
Wind: from the S (180 degrees) at 7 MPH (6 KT):0
Visibility: 10 mile(s):0
Sky conditions: clear
Temperature: 48.0 F (8.9 C)
Dew Point: 21.9 F (-5.6 C)
Relative Humidity: 35%
Pressure (altimeter): 30.02 in. Hg (1016 hPa)
Pressure tendency: 0.02 inches (0.7 hPa) higher than three hours ago
ob: KELP 260851Z 18006KT 10SM CLR 09/M06 A3002 RMK AO2 SLP128 T00891056 53007
cycle: 9

Station Type Date Time Source
KELP TAF 2022/01/26 06:30 UTC NOAA

TAF KELP 260526Z 2606/2706 20007KT P6SM FEW250
FM260900 02009KT P6SM SCT250
FM261500 10010KT P6SM FEW250

Example: see airport list